createdAt,value
2018-11-20T00:00:59.875Z,1014.36
2018-11-20T00:02:53.321Z,1014.26
2018-11-20T00:03:53.353Z,1014.29
2018-11-20T00:05:46.836Z,1014.27
2018-11-20T00:06:46.846Z,1014.29
2018-11-20T00:08:40.308Z,1014.22
2018-11-20T00:09:40.334Z,1014.13
2018-11-20T00:11:33.798Z,1014.22
2018-11-20T00:12:33.822Z,1014.16
2018-11-20T00:14:27.293Z,1014.17
2018-11-20T00:15:27.311Z,1014.22
2018-11-20T00:17:20.788Z,1014.20
2018-11-20T00:18:20.814Z,1014.18
2018-11-20T00:20:14.276Z,1014.18
2018-11-20T00:21:14.300Z,1014.09
2018-11-20T00:23:07.752Z,1013.99
2018-11-20T00:24:07.787Z,1014.07
2018-11-20T00:26:01.261Z,1014.01
2018-11-20T00:27:01.273Z,1014.01
2018-11-20T00:28:54.734Z,1013.97
2018-11-20T00:29:54.768Z,1013.96
2018-11-20T00:31:48.236Z,1014.05
2018-11-20T00:32:48.254Z,1014.03
2018-11-20T00:34:41.740Z,1013.96
2018-11-20T00:35:41.745Z,1013.94
2018-11-20T00:37:35.193Z,1013.96
2018-11-20T00:38:35.227Z,1013.86
2018-11-20T00:40:28.696Z,1013.87
2018-11-20T00:41:28.717Z,1013.85
2018-11-20T00:43:22.184Z,1013.83
2018-11-20T00:44:22.199Z,1013.84
2018-11-20T00:46:15.662Z,1013.89
2018-11-20T00:47:15.687Z,1013.87
2018-11-20T00:49:09.134Z,1013.83
2018-11-20T00:50:09.163Z,1013.80
2018-11-20T00:52:02.622Z,1013.85
2018-11-20T00:53:02.647Z,1013.82
2018-11-20T00:54:56.116Z,1013.75
2018-11-20T00:55:56.133Z,1013.74
2018-11-20T00:57:49.601Z,1013.78
2018-11-20T00:58:49.621Z,1013.79
2018-11-20T01:00:43.077Z,1013.69
2018-11-20T01:01:43.100Z,1013.70
2018-11-20T01:03:36.549Z,1013.77
2018-11-20T01:04:36.578Z,1013.71
2018-11-20T01:06:30.045Z,1013.70
2018-11-20T01:07:30.065Z,1013.67
2018-11-20T01:09:23.508Z,1013.65
2018-11-20T01:10:23.540Z,1013.48
2018-11-20T01:12:16.995Z,1013.59
2018-11-20T01:13:17.022Z,1013.57
2018-11-20T01:15:10.481Z,1013.59
2018-11-20T01:16:10.503Z,1013.56
2018-11-20T01:18:03.965Z,1013.49
2018-11-20T01:19:03.977Z,1013.54
2018-11-20T01:20:57.454Z,1013.46
2018-11-20T01:21:57.469Z,1013.43
2018-11-20T01:23:50.933Z,1013.42
2018-11-20T01:24:50.954Z,1013.52
2018-11-20T01:26:44.413Z,1013.47
2018-11-20T01:27:44.430Z,1013.36
2018-11-20T01:29:37.896Z,1013.42
2018-11-20T01:30:37.917Z,1013.32
2018-11-20T01:32:31.394Z,1013.28
2018-11-20T01:33:31.404Z,1013.31
2018-11-20T01:35:24.865Z,1013.33
2018-11-20T01:36:24.896Z,1013.43
2018-11-20T01:38:18.354Z,1013.26
2018-11-20T01:39:18.376Z,1013.33
2018-11-20T01:41:11.365Z,1013.25
2018-11-20T01:42:11.362Z,1013.32
2018-11-20T01:44:04.820Z,1013.23
2018-11-20T01:45:04.849Z,1013.17
2018-11-20T01:46:58.313Z,1013.14
2018-11-20T01:47:58.337Z,1013.05
2018-11-20T01:49:51.796Z,1013.10
2018-11-20T01:50:51.812Z,1013.13
2018-11-20T01:52:45.299Z,1013.06
2018-11-20T01:53:45.300Z,1013.04
2018-11-20T01:55:38.751Z,1013.12
2018-11-20T01:56:38.777Z,1013.00
2018-11-20T01:58:32.239Z,1013.13
2018-11-20T01:59:32.253Z,1013.05
2018-11-20T02:01:25.698Z,1013.03
2018-11-20T02:02:25.728Z,1013.03
2018-11-20T02:04:19.209Z,1013.00
2018-11-20T02:05:19.217Z,1012.98
2018-11-20T02:07:12.697Z,1012.95
2018-11-20T02:08:12.702Z,1012.97
2018-11-20T02:10:06.163Z,1012.97
2018-11-20T02:11:06.193Z,1012.92
2018-11-20T02:12:59.678Z,1012.83
2018-11-20T02:13:59.689Z,1012.75
2018-11-20T02:15:53.176Z,1012.74
2018-11-20T02:16:53.178Z,1012.80
2018-11-20T02:18:46.639Z,1012.73
2018-11-20T02:19:46.658Z,1012.70
2018-11-20T02:21:40.142Z,1012.68
2018-11-20T02:22:40.162Z,1012.62
2018-11-20T02:24:33.620Z,1012.55
2018-11-20T02:25:33.642Z,1012.59
2018-11-20T02:27:27.117Z,1012.57
2018-11-20T02:28:27.133Z,1012.51
2018-11-20T02:30:20.624Z,1012.42
2018-11-20T02:31:20.609Z,1012.40
2018-11-20T02:33:14.070Z,1012.38
2018-11-20T02:34:14.087Z,1012.37
2018-11-20T02:36:07.546Z,1012.32
2018-11-20T02:37:07.577Z,1012.33
2018-11-20T02:39:01.035Z,1012.27
2018-11-20T02:40:01.053Z,1012.30
2018-11-20T02:41:54.513Z,1012.20
2018-11-20T02:42:54.541Z,1012.20
2018-11-20T02:44:48.039Z,1012.19
2018-11-20T02:45:48.030Z,1012.15
2018-11-20T02:47:41.678Z,1012.17
2018-11-20T02:48:41.506Z,1012.15
2018-11-20T02:50:34.996Z,1012.13
2018-11-20T02:51:35.078Z,1012.13
2018-11-20T02:53:28.448Z,1012.11
2018-11-20T02:54:28.463Z,1012.13
2018-11-20T02:56:21.941Z,1012.09
2018-11-20T02:57:21.953Z,1012.12
2018-11-20T02:59:15.418Z,1012.14
2018-11-20T03:00:15.445Z,1012.13
2018-11-20T03:02:08.879Z,1012.11
2018-11-20T03:03:08.910Z,1012.03
2018-11-20T03:05:02.370Z,1012.07
2018-11-20T03:06:02.386Z,1012.04
2018-11-20T03:07:55.875Z,1012.08
2018-11-20T03:08:55.883Z,1012.05
2018-11-20T03:10:49.336Z,1012.00
2018-11-20T03:11:49.353Z,1012.07
2018-11-20T03:13:42.804Z,1012.05
2018-11-20T03:14:42.829Z,1012.11
2018-11-20T03:16:36.275Z,1012.08
2018-11-20T03:17:36.310Z,1012.02
2018-11-20T03:19:29.781Z,1011.95
2018-11-20T03:20:29.788Z,1012.08
2018-11-20T03:22:23.256Z,1012.11
2018-11-20T03:23:23.277Z,1012.05
2018-11-20T03:25:16.738Z,1012.06
2018-11-20T03:26:16.757Z,1012.04
2018-11-20T03:28:10.199Z,1012.03
2018-11-20T03:29:10.233Z,1012.03
2018-11-20T03:31:03.686Z,1012.09
2018-11-20T03:32:03.710Z,1012.04
2018-11-20T03:33:57.177Z,1011.93
2018-11-20T03:34:57.188Z,1011.89
2018-11-20T03:36:50.631Z,1011.91
2018-11-20T03:37:50.662Z,1011.93
2018-11-20T03:39:44.111Z,1011.96
2018-11-20T03:40:44.138Z,1011.85
2018-11-20T03:42:37.605Z,1011.82
2018-11-20T03:43:37.635Z,1011.88
2018-11-20T03:45:31.100Z,1011.80
2018-11-20T03:46:31.109Z,1011.90
2018-11-20T03:48:24.557Z,1011.89
2018-11-20T03:49:24.585Z,1011.83
2018-11-20T03:51:18.050Z,1011.80
2018-11-20T03:52:18.076Z,1011.86
2018-11-20T03:54:11.518Z,1011.76
2018-11-20T03:55:11.546Z,1011.86
2018-11-20T03:57:05.011Z,1011.82
2018-11-20T03:58:05.034Z,1011.81
2018-11-20T03:59:58.490Z,1011.75
2018-11-20T04:00:58.516Z,1011.72
2018-11-20T04:02:51.971Z,1011.80
2018-11-20T04:03:51.994Z,1011.83
2018-11-20T04:05:45.466Z,1011.79
2018-11-20T04:06:45.482Z,1011.85
2018-11-20T04:08:38.933Z,1011.80
2018-11-20T04:09:38.964Z,1011.80
2018-11-20T04:11:32.425Z,1011.83
2018-11-20T04:12:32.444Z,1011.78
2018-11-20T04:14:25.915Z,1011.98
2018-11-20T04:15:25.934Z,1011.86
2018-11-20T04:17:19.394Z,1011.82
2018-11-20T04:18:19.419Z,1011.84
2018-11-20T04:20:12.881Z,1011.85
2018-11-20T04:21:12.904Z,1011.89
2018-11-20T04:23:06.356Z,1011.87
2018-11-20T04:24:06.383Z,1012.03
2018-11-20T04:25:59.840Z,1011.77
2018-11-20T04:26:59.860Z,1011.83
2018-11-20T04:28:53.306Z,1011.78
2018-11-20T04:29:53.340Z,1011.77
2018-11-20T04:31:46.800Z,1011.74
2018-11-20T04:32:46.816Z,1011.75
2018-11-20T04:34:40.287Z,1011.78
2018-11-20T04:35:40.310Z,1011.78
2018-11-20T04:37:33.779Z,1011.84
2018-11-20T04:38:33.799Z,1011.75
2018-11-20T04:40:27.258Z,1011.79
2018-11-20T04:41:27.272Z,1011.84
2018-11-20T04:43:20.717Z,1011.84
2018-11-20T04:44:20.747Z,1011.82
2018-11-20T04:46:14.206Z,1011.86
2018-11-20T04:47:14.224Z,1011.81
2018-11-20T04:49:07.673Z,1011.79
2018-11-20T04:50:07.702Z,1011.80
2018-11-20T04:52:01.156Z,1011.80
2018-11-20T04:53:01.182Z,1011.85
2018-11-20T04:54:54.633Z,1011.76
2018-11-20T04:55:54.660Z,1011.83
2018-11-20T04:57:48.235Z,1011.67
2018-11-20T04:58:48.136Z,1011.73
2018-11-20T05:00:41.605Z,1011.78
2018-11-20T05:01:41.611Z,1011.73
2018-11-20T05:03:35.062Z,1011.68
2018-11-20T05:04:35.093Z,1011.78
2018-11-20T05:06:28.629Z,1011.78
2018-11-20T05:07:28.568Z,1011.76
2018-11-20T05:09:22.012Z,1011.89
2018-11-20T05:10:22.045Z,1011.82
2018-11-20T05:12:15.496Z,1011.78
2018-11-20T05:13:15.544Z,1011.66
2018-11-20T05:15:08.971Z,1011.72
2018-11-20T05:16:09.001Z,1011.70
2018-11-20T05:18:02.474Z,1011.72
2018-11-20T05:19:02.482Z,1011.76
2018-11-20T05:20:55.946Z,1011.75
2018-11-20T05:21:55.957Z,1011.64
2018-11-20T05:23:49.465Z,1011.91
2018-11-20T05:24:49.448Z,1011.79
2018-11-20T05:26:42.895Z,1011.79
2018-11-20T05:27:42.922Z,1011.81
2018-11-20T05:29:36.385Z,1011.84
2018-11-20T05:30:36.415Z,1011.84
2018-11-20T05:32:29.866Z,1011.95
2018-11-20T05:33:29.891Z,1011.89
2018-11-20T05:35:23.351Z,1012.02
2018-11-20T05:36:23.382Z,1011.92
2018-11-20T05:38:16.846Z,1011.91
2018-11-20T05:39:16.867Z,1012.05
2018-11-20T05:41:10.314Z,1011.94
2018-11-20T05:42:10.351Z,1012.05
2018-11-20T05:44:03.798Z,1012.04
2018-11-20T05:45:03.831Z,1012.04
2018-11-20T05:46:57.376Z,1012.10
2018-11-20T05:47:57.309Z,1012.15
2018-11-20T05:49:50.745Z,1012.22
2018-11-20T05:50:50.776Z,1012.17
2018-11-20T05:52:44.242Z,1012.22
2018-11-20T05:53:44.260Z,1012.19
2018-11-20T05:55:37.721Z,1012.19
2018-11-20T05:56:37.751Z,1012.15
2018-11-20T05:58:31.204Z,1012.12
2018-11-20T05:59:31.227Z,1012.16
2018-11-20T06:01:24.673Z,1012.20
2018-11-20T06:02:24.703Z,1012.12
2018-11-20T06:04:18.155Z,1012.14
2018-11-20T06:05:18.181Z,1012.09
2018-11-20T06:07:11.629Z,1012.09
2018-11-20T06:08:11.663Z,1012.08
2018-11-20T06:10:05.112Z,1012.10
2018-11-20T06:11:05.135Z,1012.07
2018-11-20T06:12:58.604Z,1012.00
2018-11-20T06:13:58.621Z,1012.01
2018-11-20T06:15:52.076Z,1012.03
2018-11-20T06:16:52.104Z,1012.04
2018-11-20T06:18:45.568Z,1012.04
2018-11-20T06:19:45.594Z,1011.99
2018-11-20T06:21:39.042Z,1011.95
2018-11-20T06:22:39.069Z,1011.98
2018-11-20T06:24:32.536Z,1011.95
2018-11-20T06:25:32.556Z,1011.93
2018-11-20T06:27:26.012Z,1011.98
2018-11-20T06:28:26.047Z,1011.92
2018-11-20T06:30:19.491Z,1011.96
2018-11-20T06:31:19.507Z,1012.00
2018-11-20T06:33:12.971Z,1011.96
2018-11-20T06:34:13.050Z,1011.94
2018-11-20T06:36:06.479Z,1011.95
2018-11-20T06:37:06.468Z,1011.97
2018-11-20T06:38:59.937Z,1011.96
2018-11-20T06:39:59.962Z,1011.90
2018-11-20T06:41:53.447Z,1011.86
2018-11-20T06:42:53.436Z,1011.83
2018-11-20T06:44:46.889Z,1011.82
2018-11-20T06:45:46.919Z,1011.84
2018-11-20T06:47:40.387Z,1011.78
2018-11-20T06:48:40.400Z,1011.82
2018-11-20T06:50:33.851Z,1011.85
2018-11-20T06:51:33.878Z,1011.82
2018-11-20T06:53:27.397Z,1011.83
2018-11-20T06:54:27.352Z,1011.83
2018-11-20T06:56:20.834Z,1011.74
2018-11-20T06:57:20.886Z,1011.74
2018-11-20T06:59:14.302Z,1011.73
2018-11-20T07:00:14.321Z,1011.80
2018-11-20T07:02:07.788Z,1011.78
2018-11-20T07:03:07.816Z,1011.72
2018-11-20T07:05:01.298Z,1011.79
2018-11-20T07:06:01.307Z,1011.79
2018-11-20T07:07:54.914Z,1011.81
2018-11-20T07:08:54.862Z,1011.74
2018-11-20T07:10:48.257Z,1011.79
2018-11-20T07:11:48.273Z,1011.92
2018-11-20T07:13:41.733Z,1011.80
2018-11-20T07:14:41.766Z,1011.76
2018-11-20T07:16:35.256Z,1011.72
2018-11-20T07:17:35.250Z,1011.71
2018-11-20T07:19:28.703Z,1011.74
2018-11-20T07:20:28.730Z,1011.70
2018-11-20T07:22:22.233Z,1011.73
2018-11-20T07:23:22.209Z,1011.71
2018-11-20T07:25:15.677Z,1011.70
2018-11-20T07:26:15.698Z,1011.71
2018-11-20T07:28:09.171Z,1011.68
2018-11-20T07:29:09.192Z,1011.71
2018-11-20T07:31:02.744Z,1011.75
2018-11-20T07:32:02.744Z,1011.53
2018-11-20T07:33:56.150Z,1011.59
2018-11-20T07:34:56.156Z,1011.62
2018-11-20T07:36:49.727Z,1011.64
2018-11-20T07:37:49.630Z,1011.59
2018-11-20T07:39:43.101Z,1011.53
2018-11-20T07:40:43.112Z,1011.56
2018-11-20T07:42:36.573Z,1011.49
2018-11-20T07:43:36.658Z,1011.51
2018-11-20T07:45:30.092Z,1011.57
2018-11-20T07:46:30.079Z,1011.53
2018-11-20T07:48:23.541Z,1011.50
2018-11-20T07:49:23.572Z,1011.51
2018-11-20T07:51:17.025Z,1011.43
2018-11-20T07:52:17.052Z,1011.46
2018-11-20T07:54:10.502Z,1011.29
2018-11-20T07:55:10.583Z,1011.39
2018-11-20T07:57:03.991Z,1011.45
2018-11-20T07:58:04.007Z,1011.33
2018-11-20T07:59:57.452Z,1011.47
2018-11-20T08:00:57.484Z,1011.34
2018-11-20T08:02:50.940Z,1011.38
2018-11-20T08:03:50.961Z,1011.41
2018-11-20T08:05:44.422Z,1011.47
2018-11-20T08:06:44.444Z,1011.48
2018-11-20T08:08:37.974Z,1011.49
2018-11-20T08:09:37.937Z,1011.48
2018-11-20T08:11:31.397Z,1011.54
2018-11-20T08:12:31.419Z,1011.48
2018-11-20T08:14:24.863Z,1011.51
2018-11-20T08:15:24.972Z,1011.56
2018-11-20T08:17:18.348Z,1011.55
2018-11-20T08:18:18.374Z,1011.65
2018-11-20T08:20:11.815Z,1011.60
2018-11-20T08:21:11.850Z,1011.56
2018-11-20T08:23:05.301Z,1011.51
2018-11-20T08:24:05.324Z,1011.48
2018-11-20T08:25:58.942Z,1011.55
2018-11-20T08:26:58.813Z,1011.45
2018-11-20T08:28:52.317Z,1011.47
2018-11-20T08:29:52.304Z,1011.42
2018-11-20T08:31:45.768Z,1011.42
2018-11-20T08:32:45.793Z,1011.36
2018-11-20T08:34:39.237Z,1011.33
2018-11-20T08:35:39.269Z,1011.38
2018-11-20T08:37:32.741Z,1011.31
2018-11-20T08:38:32.759Z,1011.34
2018-11-20T08:40:26.207Z,1011.28
2018-11-20T08:41:26.235Z,1011.34
2018-11-20T08:43:19.710Z,1011.31
2018-11-20T08:44:19.788Z,1011.32
2018-11-20T08:46:13.213Z,1011.30
2018-11-20T08:47:13.223Z,1011.24
2018-11-20T08:49:06.669Z,1011.22
2018-11-20T08:50:06.698Z,1011.27
2018-11-20T08:52:00.171Z,1011.22
2018-11-20T08:53:00.232Z,1011.23
2018-11-20T08:54:53.654Z,1011.20
2018-11-20T08:55:53.688Z,1011.18
2018-11-20T08:57:47.157Z,1011.15
2018-11-20T08:58:47.174Z,1011.08
2018-11-20T09:00:40.621Z,1011.11
2018-11-20T09:01:40.650Z,1011.00
2018-11-20T09:03:34.105Z,1010.94
2018-11-20T09:04:34.129Z,1010.98
2018-11-20T09:06:27.600Z,1010.89
2018-11-20T09:07:27.610Z,1010.88
2018-11-20T09:09:21.059Z,1010.86
2018-11-20T09:10:21.132Z,1010.88
2018-11-20T09:12:14.546Z,1010.92
2018-11-20T09:13:14.569Z,1010.85
2018-11-20T09:15:08.020Z,1010.87
2018-11-20T09:16:08.051Z,1010.85
2018-11-20T09:18:01.609Z,1010.76
2018-11-20T09:19:01.531Z,1010.79
2018-11-20T09:20:54.995Z,1010.83
2018-11-20T09:21:55.026Z,1010.81
2018-11-20T09:23:48.486Z,1010.85
2018-11-20T09:24:48.511Z,1010.82
2018-11-20T09:26:41.959Z,1010.82
2018-11-20T09:27:42.037Z,1010.87
2018-11-20T09:29:35.453Z,1010.84
2018-11-20T09:30:35.477Z,1010.95
2018-11-20T09:32:28.930Z,1010.88
2018-11-20T09:33:28.965Z,1010.94
2018-11-20T09:35:22.604Z,1010.89
2018-11-20T09:36:22.450Z,1010.93
2018-11-20T09:38:15.893Z,1010.92
2018-11-20T09:39:15.925Z,1010.88
2018-11-20T09:41:09.377Z,1010.88
2018-11-20T09:42:09.401Z,1010.86
2018-11-20T09:44:02.860Z,1010.77
2018-11-20T09:45:02.882Z,1010.84
2018-11-20T09:46:56.419Z,1010.81
2018-11-20T09:47:56.359Z,1010.81
2018-11-20T09:49:49.809Z,1010.81
2018-11-20T09:50:49.836Z,1010.86
2018-11-20T09:52:43.371Z,1010.81
2018-11-20T09:53:43.328Z,1010.89
2018-11-20T09:55:36.787Z,1010.78
2018-11-20T09:56:36.811Z,1010.77
2018-11-20T09:58:30.270Z,1010.76
2018-11-20T09:59:30.309Z,1010.75
2018-11-20T10:01:23.750Z,1010.81
2018-11-20T10:02:23.774Z,1010.82
2018-11-20T10:04:17.234Z,1010.76
2018-11-20T10:05:17.268Z,1010.80
2018-11-20T10:07:10.816Z,1010.74
2018-11-20T10:08:10.745Z,1010.74
2018-11-20T10:10:04.205Z,1010.70
2018-11-20T10:11:04.228Z,1010.73
2018-11-20T10:12:57.672Z,1010.74
2018-11-20T10:13:57.819Z,1010.78
2018-11-20T10:15:51.162Z,1010.77
2018-11-20T10:16:51.189Z,1010.72
2018-11-20T10:18:44.633Z,1010.65
2018-11-20T10:19:44.667Z,1010.67
2018-11-20T10:21:38.262Z,1010.63
2018-11-20T10:22:38.161Z,1010.57
2018-11-20T10:24:31.658Z,1010.63
2018-11-20T10:25:31.755Z,1010.55
2018-11-20T10:27:25.111Z,1010.47
2018-11-20T10:28:25.123Z,1010.46
2018-11-20T10:30:18.588Z,1010.42
2018-11-20T10:31:18.615Z,1010.39
2018-11-20T10:33:12.071Z,1010.33
2018-11-20T10:34:12.129Z,1010.33
2018-11-20T10:36:05.560Z,1010.33
2018-11-20T10:37:05.589Z,1010.30
2018-11-20T10:38:59.033Z,1010.14
2018-11-20T10:39:59.066Z,1010.16
2018-11-20T10:41:52.529Z,1010.20
2018-11-20T10:42:52.546Z,1010.17
2018-11-20T10:44:45.997Z,1010.07
2018-11-20T10:45:46.033Z,1010.16
2018-11-20T10:47:39.487Z,1010.20
2018-11-20T10:48:39.510Z,1010.15
2018-11-20T10:50:32.983Z,1010.23
2018-11-20T10:51:33.004Z,1010.20
2018-11-20T10:53:26.455Z,1010.24
2018-11-20T10:54:26.481Z,1010.29
2018-11-20T10:56:19.945Z,1010.25
2018-11-20T10:57:19.960Z,1010.22
2018-11-20T10:59:13.406Z,1010.18
2018-11-20T11:00:13.438Z,1010.23
2018-11-20T11:02:06.898Z,1010.20
2018-11-20T11:03:06.930Z,1010.24
2018-11-20T11:05:00.406Z,1010.15
2018-11-20T11:06:00.410Z,1010.16
2018-11-20T11:07:53.990Z,1010.14
2018-11-20T11:08:53.885Z,1010.02
2018-11-20T11:10:47.356Z,1010.04
2018-11-20T11:11:47.420Z,1010.06
2018-11-20T11:13:40.844Z,1010.04
2018-11-20T11:14:40.932Z,1009.94
2018-11-20T11:16:34.316Z,1009.99
2018-11-20T11:17:34.342Z,1009.99
2018-11-20T11:19:27.785Z,1009.98
2018-11-20T11:20:27.884Z,1010.00
2018-11-20T11:22:21.275Z,1009.93
2018-11-20T11:23:21.298Z,1009.96
2018-11-20T11:25:14.760Z,1009.96
2018-11-20T11:26:14.794Z,1009.88
2018-11-20T11:28:08.246Z,1009.93
2018-11-20T11:29:08.266Z,1009.92
2018-11-20T11:31:01.712Z,1009.91
2018-11-20T11:32:01.744Z,1009.86
2018-11-20T11:33:55.202Z,1009.75
2018-11-20T11:34:55.225Z,1009.77
2018-11-20T11:36:48.680Z,1009.78
2018-11-20T11:37:48.711Z,1009.76
2018-11-20T11:39:42.177Z,1009.73
2018-11-20T11:40:42.202Z,1009.77
2018-11-20T11:42:35.665Z,1009.80
2018-11-20T11:43:35.693Z,1009.73
2018-11-20T11:45:29.140Z,1009.74
2018-11-20T11:46:29.171Z,1009.73
2018-11-20T11:48:22.640Z,1009.71
2018-11-20T11:49:22.658Z,1009.69
2018-11-20T11:51:17.105Z,1009.78
2018-11-20T11:52:17.132Z,1009.67
2018-11-20T11:54:10.588Z,1009.63
2018-11-20T11:55:10.615Z,1009.55
2018-11-20T11:57:04.063Z,1009.56
2018-11-20T11:58:04.091Z,1009.59
2018-11-20T11:59:57.557Z,1009.51
2018-11-20T12:00:57.567Z,1009.55
2018-11-20T12:03:51.054Z,1009.45
2018-11-20T12:05:44.498Z,1009.49
2018-11-20T12:06:44.519Z,1009.41
2018-11-20T12:08:37.985Z,1009.42
2018-11-20T12:09:38.010Z,1009.44
2018-11-20T12:11:31.452Z,1009.33
2018-11-20T12:12:31.485Z,1009.35
2018-11-20T12:14:24.940Z,1009.41
2018-11-20T12:15:24.961Z,1009.36
2018-11-20T12:17:18.414Z,1009.35
2018-11-20T12:18:18.442Z,1009.34
2018-11-20T12:20:11.402Z,1009.44
2018-11-20T12:21:11.428Z,1009.32
2018-11-20T12:23:04.874Z,1009.47
2018-11-20T12:24:04.928Z,1009.37
2018-11-20T12:25:58.363Z,1009.33
2018-11-20T12:26:58.419Z,1009.42
2018-11-20T12:28:53.090Z,1009.33
2018-11-20T12:29:51.896Z,1009.19
2018-11-20T12:31:45.338Z,1009.18
2018-11-20T12:32:47.173Z,1009.25
2018-11-20T12:34:38.872Z,1009.17
2018-11-20T12:35:38.849Z,1009.23
2018-11-20T12:37:32.313Z,1009.15
2018-11-20T12:38:32.322Z,1009.10
2018-11-20T12:40:25.827Z,1009.09
2018-11-20T12:41:28.312Z,1009.08
2018-11-20T12:43:19.273Z,1009.06
2018-11-20T12:44:20.484Z,1009.09
2018-11-20T12:46:13.168Z,1009.05
2018-11-20T12:47:15.146Z,1009.06
2018-11-20T12:49:06.905Z,1009.02
2018-11-20T12:50:06.259Z,1008.99
2018-11-20T12:51:59.759Z,1008.95
2018-11-20T12:53:00.414Z,1008.88
2018-11-20T12:54:54.226Z,1009.02
2018-11-20T12:55:54.886Z,1008.86
2018-11-20T12:57:47.710Z,1008.93
2018-11-20T12:58:47.734Z,1008.81
2018-11-20T13:00:41.203Z,1008.83
2018-11-20T13:01:41.211Z,1008.73
2018-11-20T13:03:34.659Z,1008.76
2018-11-20T13:04:34.685Z,1008.80
2018-11-20T13:06:28.149Z,1008.95
2018-11-20T13:07:28.174Z,1008.80
2018-11-20T13:09:21.661Z,1008.80
2018-11-20T13:10:21.649Z,1008.80
2018-11-20T13:12:15.121Z,1008.80
2018-11-20T13:13:15.140Z,1008.74
2018-11-20T13:15:08.632Z,1008.82
2018-11-20T13:16:08.626Z,1008.80
2018-11-20T13:18:03.568Z,1008.79
2018-11-20T13:19:02.102Z,1008.82
2018-11-20T13:20:55.595Z,1008.79
2018-11-20T13:21:55.578Z,1008.85
2018-11-20T13:23:49.614Z,1008.86
2018-11-20T13:24:49.062Z,1008.80
2018-11-20T13:26:42.501Z,1008.81
2018-11-20T13:27:42.524Z,1008.90
2018-11-20T13:29:35.966Z,1008.85
2018-11-20T13:30:35.998Z,1008.87
2018-11-20T13:32:28.961Z,1008.81
2018-11-20T13:33:28.984Z,1008.77
2018-11-20T13:35:21.930Z,1008.80
2018-11-20T13:36:21.960Z,1008.72
2018-11-20T13:38:14.915Z,1008.78
2018-11-20T13:39:14.941Z,1008.82
2018-11-20T13:41:08.473Z,1008.76
2018-11-20T13:42:08.504Z,1008.73
2018-11-20T13:44:01.463Z,1008.76
2018-11-20T13:45:01.489Z,1008.73
2018-11-20T13:46:54.455Z,1008.64
2018-11-20T13:47:54.466Z,1008.77
2018-11-20T13:49:48.908Z,1008.76
2018-11-20T13:50:48.940Z,1008.68
2018-11-20T13:52:42.406Z,1008.66
2018-11-20T13:53:42.434Z,1008.65
2018-11-20T13:55:35.882Z,1008.71
2018-11-20T13:56:35.911Z,1008.69
2018-11-20T13:58:29.370Z,1008.66
2018-11-20T13:59:29.391Z,1008.61
2018-11-20T14:01:22.847Z,1008.65
2018-11-20T14:02:22.873Z,1008.66
2018-11-20T14:04:16.335Z,1008.70
2018-11-20T14:05:16.354Z,1008.63
2018-11-20T14:07:09.907Z,1008.64
2018-11-20T14:08:09.935Z,1008.65
2018-11-20T14:10:03.408Z,1008.66
2018-11-20T14:11:03.422Z,1008.64
2018-11-20T14:12:56.889Z,1008.73
2018-11-20T14:13:56.899Z,1008.68
2018-11-20T14:15:50.370Z,1008.65
2018-11-20T14:16:50.382Z,1008.65
2018-11-20T14:18:43.841Z,1008.58
2018-11-20T14:19:43.866Z,1008.57
2018-11-20T14:21:37.342Z,1008.57
2018-11-20T14:22:37.355Z,1008.56
2018-11-20T14:24:30.812Z,1008.60
2018-11-20T14:25:30.846Z,1008.59
2018-11-20T14:27:24.299Z,1008.60
2018-11-20T14:28:24.331Z,1008.66
2018-11-20T14:30:17.806Z,1008.59
2018-11-20T14:31:17.824Z,1008.57
2018-11-20T14:33:11.291Z,1008.69
2018-11-20T14:34:11.330Z,1008.58
2018-11-20T14:36:04.833Z,1008.65
2018-11-20T14:37:04.811Z,1008.59
2018-11-20T14:38:58.267Z,1008.59
2018-11-20T14:39:58.293Z,1008.49
2018-11-20T14:41:51.741Z,1008.51
2018-11-20T14:42:51.774Z,1008.51
2018-11-20T14:44:45.245Z,1008.50
2018-11-20T14:45:45.262Z,1008.49
2018-11-20T14:47:38.728Z,1008.50
2018-11-20T14:48:38.743Z,1008.52
2018-11-20T14:50:32.203Z,1008.52
2018-11-20T14:51:32.224Z,1008.50
2018-11-20T14:53:25.698Z,1008.57
2018-11-20T14:54:25.716Z,1008.60
2018-11-20T14:56:19.176Z,1008.55
2018-11-20T14:57:19.193Z,1008.56
2018-11-20T14:59:12.652Z,1008.73
2018-11-20T15:00:12.683Z,1008.72
2018-11-20T15:02:06.126Z,1008.73
2018-11-20T15:03:06.158Z,1008.74
2018-11-20T15:04:59.612Z,1008.81
2018-11-20T15:05:59.633Z,1008.72
2018-11-20T15:07:59.191Z,1008.72
2018-11-20T15:08:53.109Z,1008.67
2018-11-20T15:10:46.566Z,1008.68
2018-11-20T15:11:46.585Z,1008.73
2018-11-20T15:13:40.162Z,1008.73
2018-11-20T15:14:39.571Z,1008.75
2018-11-20T15:16:33.032Z,1008.77
2018-11-20T15:17:33.052Z,1008.69
2018-11-20T15:19:26.000Z,1008.69
2018-11-20T15:20:26.032Z,1008.74
2018-11-20T15:22:19.498Z,1008.69
2018-11-20T15:23:19.525Z,1008.64
2018-11-20T15:25:12.974Z,1008.64
2018-11-20T15:26:12.997Z,1008.60
2018-11-20T15:28:06.686Z,1008.58
2018-11-20T15:29:06.489Z,1008.56
2018-11-20T15:30:59.950Z,1008.56
2018-11-20T15:31:59.961Z,1008.56
2018-11-20T15:33:52.911Z,1008.61
2018-11-20T15:34:52.939Z,1008.60
2018-11-20T15:36:46.391Z,1008.69
2018-11-20T15:37:46.413Z,1008.70
2018-11-20T15:39:39.904Z,1008.74
2018-11-20T15:40:39.888Z,1008.72
2018-11-20T15:42:33.347Z,1008.84
2018-11-20T15:43:33.373Z,1008.83
2018-11-20T15:45:26.814Z,1008.93
2018-11-20T15:46:26.844Z,1008.89
2018-11-20T15:48:20.343Z,1008.95
2018-11-20T15:49:20.317Z,1008.93
2018-11-20T15:51:13.784Z,1008.90
2018-11-20T15:52:13.791Z,1008.93
2018-11-20T15:54:07.231Z,1008.90
2018-11-20T15:55:07.266Z,1008.92
2018-11-20T15:57:00.715Z,1008.93
2018-11-20T15:58:00.740Z,1008.97
2018-11-20T15:59:56.140Z,1009.02
2018-11-20T16:00:53.723Z,1009.02
2018-11-20T16:02:46.681Z,1009.03
2018-11-20T16:03:46.709Z,1009.06
2018-11-20T16:05:39.657Z,1009.07
2018-11-20T16:06:39.687Z,1009.11
2018-11-20T16:08:33.135Z,1009.18
2018-11-20T16:09:33.161Z,1009.20
2018-11-20T16:11:26.606Z,1009.16
2018-11-20T16:12:26.634Z,1009.11
2018-11-20T16:14:19.604Z,1009.18
2018-11-20T16:15:19.618Z,1009.21
2018-11-20T16:17:17.309Z,1009.30
2018-11-20T16:18:13.183Z,1009.20
2018-11-20T16:20:06.550Z,1009.20
2018-11-20T16:21:06.576Z,1009.18
2018-11-20T16:22:59.576Z,1009.26
2018-11-20T16:23:59.560Z,1009.24
2018-11-20T16:25:53.005Z,1009.24
2018-11-20T16:26:53.033Z,1009.28
2018-11-20T16:28:46.487Z,1009.24
2018-11-20T16:29:46.514Z,1009.31
2018-11-20T16:31:40.004Z,1009.28
2018-11-20T16:32:39.996Z,1009.22
2018-11-20T16:34:32.956Z,1009.24
2018-11-20T16:35:32.974Z,1009.25
2018-11-20T16:37:25.927Z,1009.36
2018-11-20T16:38:25.960Z,1009.37
2018-11-20T16:40:19.421Z,1009.43
2018-11-20T16:41:19.442Z,1009.36
2018-11-20T16:43:12.412Z,1009.31
2018-11-20T16:44:12.427Z,1009.35
2018-11-20T16:46:05.872Z,1009.35
2018-11-20T16:47:05.899Z,1009.36
2018-11-20T16:48:59.355Z,1009.33
2018-11-20T16:49:59.377Z,1009.38
2018-11-20T16:51:52.326Z,1009.38
2018-11-20T16:52:52.357Z,1009.41
2018-11-20T16:54:45.828Z,1009.45
2018-11-20T16:55:45.843Z,1009.42
2018-11-20T16:57:39.287Z,1009.42
2018-11-20T16:58:39.317Z,1009.39
2018-11-20T17:00:32.315Z,1009.39
2018-11-20T17:01:32.300Z,1009.42
2018-11-20T17:03:25.768Z,1009.44
2018-11-20T17:04:25.779Z,1009.43
2018-11-20T17:06:19.231Z,1009.43
2018-11-20T17:07:19.260Z,1009.39
2018-11-20T17:09:12.216Z,1009.39
2018-11-20T17:10:12.241Z,1009.41
2018-11-20T17:12:05.197Z,1009.47
2018-11-20T17:13:05.231Z,1009.45
2018-11-20T17:14:58.189Z,1009.47
2018-11-20T17:15:58.206Z,1009.48
2018-11-20T17:17:51.159Z,1009.46
2018-11-20T17:18:51.191Z,1009.52
2018-11-20T17:20:44.145Z,1009.47
2018-11-20T17:21:44.171Z,1009.59
2018-11-20T17:23:37.633Z,1009.59
2018-11-20T17:24:37.657Z,1009.56
2018-11-20T17:26:30.621Z,1009.56
2018-11-20T17:27:30.642Z,1009.56
2018-11-20T17:29:23.590Z,1009.58
2018-11-20T17:30:23.625Z,1009.57